Etusivu
METAR-TAF:

METAR-TAF

Lentoasemat :

Sumbe, Angola

Leveyspiiri: 11-10-05S, Pituuspiiri: 13-50-50E, korkeus merenpinnasta: 11 m

Tämänhetkinen sää

Tämä raportti tehtiin 2 tuntia ja 24 minuuttia sitten, kello 09.00 UTC
Tuuli 5 kn lännestä
Lämpötila 24°C
Kosteus 78%
Ilmanpaine 1013 hPa
Näkyvyys 10 km tai enemmän
Pilvistä 1100 ft:n korkeudessa

METAR: FNSU 030900Z 27005KT 9999 OVC011 24/20 Q1013

Aika: 12:24 (11:24 UTC)


TAF: puuttuu

Säähavainnot ja -ennusteet yli 4000 lentoasemalta (METAR- ja TAF-raportit).

Käytössä olevat sääasemat on merkitty karttaan keltaisilla ja punaisilla pisteillä.

Aseta hiiri pisteen päälle nähdäksesi sääaseman nimen.

Klikkaa sitten nähdäksesi säähavainnot ja -ennusteet.

Kartan vaihtaminen: klikkaa mustalla rastilla varustettuja vihreitä pisteitä, niin voit zoomata sisään; viivalla varustettua vihreää pistettä, niin voit zoomata ulos tai vihreitä nuolia, niin pääset viereisille kartoille.


METAR-TAF: